Portada
METAR-TAF:

METAR-TAF

Aeroports :

Los Mochis, Mèxic

latitud: 25-41N, longitud: 109-05W, altitud: 4 m

Observació

L'informe es va fer fa 1 hora i 52 minuts, a les 13:06 UTC
Vent 5 kt del Est/Sud-Est
Temperatura 22°C
Humitat 83%
Pressió 1011 hPa
Visibilitat: 16.1 km
Cel clar

METAR: MMLM 211306Z RTD 12005KT 10SM SKC 22/19 A2985 RMK HZY RTS

Hora: 08:58 (14:58 UTC)

Pronòstic

L'informe es va fer fa 10 hores i 23 minuts, a les 04:35 UTC
Pronòstic vàlid del 21 a les 06 UTC al 22 a les 06 UTC
Vent 5 kt del Oest
Visibilitat: 10 km
Cel clar
A partir de les 21 a les 1800 UTC
Vent 12 kt del Oest
Visibilitat: 10 km
Núvols disperses a una alçada de 3000 ft
A partir de les 22 a les 0400 UTC
Vent 5 kt del Oest/Sud-Oest
Visibilitat: 10 km
Cel clar

TAF: MMLM 210435Z 2106/2206 26005KT P6SM SKC FM211800 26012KT P6SM SCT030 FM220400 24005KT P6SM SKC

Observacions i pronòstics meteorològics de més de 4000 aeroports (METAR i TAF).

Les estacions disponibles són els punts grocs i vermells al mapa.

Posi el ratolí al punt desitjat per veure el nom de l'estació.

Feu clic per veure les observacions i els pronòstics meteorològics.

Per canviar el mapa: feu clic els botons verds amb una creu de color negre per apropar; al botó verd amb un guió per allunyar la imatge; o en les fletxes verdes per a mapes adjacents.


METAR-TAF: